Texas General Land Office
 Texas General Land Office
 George P. Bush, Commissioner

 Oil Spill Prevention
 & Response

Texas Automated Buoy System
Real Time Ocean Observations
Supporting Oil Spill Prevention and
Response since 1995
Geochemical and Environmental Research Group

TABS Buoy R -- Texas Automated Buoy System

TABS Buoy R Conditions at 06/22/2018 20:30 UTC (06/22/2018 15:30 CDT)
29° 38.1000'N   93° 38.5020'W
AA3900 DCS - sensor depth 2m
Water Depth: 32 feet (9 meters)
Speed: 14.89 cm/s (0.29 kts) Direction: 155 °T (SSE) Water Temp: 28°C (83 °F)
System Voltage: 13.3 V Signal Strength: -2.4 dB Ping Count: 141
  


IMPORTANT: Notice to Mariners


Today's Velocity Data (download)

   Date   |  Time  |   East |   North|   Speed|  Dir | WaterT |
          |  (UTC) |  (cm/s)|  (cm/s)|  (cm/s)| (°T) |  (°C)  |
==========+========+========+========+========+======+========+
06/22/2018 05:00:00   -21.12     4.90    21.68  283.1   27.5
06/22/2018 05:30:00   -22.85     3.21    23.07  278.0   27.5
06/22/2018 06:00:00   -17.80     1.78    17.89  275.7   27.5
06/22/2018 06:30:00   -14.05     3.51    14.48  284.0   27.4
06/22/2018 07:00:00    -9.69     0.36     9.70  272.1   27.4
06/22/2018 07:30:00    -7.52     1.66     7.70  282.4   27.3
06/22/2018 08:00:00    -8.46     0.43     8.47  272.9   27.3
06/22/2018 08:30:00    -5.85     4.53     7.40  307.8   27.2
06/22/2018 09:00:00   -12.27     4.40    13.04  289.7   27.2
06/22/2018 09:30:00   -11.61     5.46    12.83  295.2   27.2
06/22/2018 10:00:00    -7.51     7.45    10.58  314.8   27.2
06/22/2018 10:30:00    -4.25     5.49     6.94  322.3   27.1
06/22/2018 11:00:00    -0.11     3.54     3.54  358.2   27.1
06/22/2018 11:30:00    -1.05     4.06     4.19  345.5   27.1
06/22/2018 12:00:00     0.43     4.59     4.61    5.4   27.1
06/22/2018 12:30:00     3.11     3.94     5.02   38.3   27.1
06/22/2018 13:00:00     1.27     4.38     4.56   16.2   27.1
06/22/2018 13:30:00     0.84     3.86     3.95   12.3   27.1
06/22/2018 14:00:00     2.96     3.54     4.61   39.9   27.2
06/22/2018 14:30:00     5.03     3.85     6.33   52.6   27.2
06/22/2018 15:00:00     5.87     1.40     6.03   76.6   27.3
06/22/2018 15:30:00     6.53     0.13     6.53   88.9   27.4
06/22/2018 16:00:00     4.26    -1.55     4.53  110.0   27.4
06/22/2018 16:30:00     6.99    -1.44     7.14  101.6   27.5
06/22/2018 17:00:00     5.85    -1.68     6.09  106.0   27.6
06/22/2018 17:30:00     4.06    -3.66     5.47  132.0   27.7
06/22/2018 18:00:00     5.32    -4.67     7.08  131.3   27.8
06/22/2018 18:30:00     5.03    -5.73     7.62  138.7   27.9
06/22/2018 19:00:00     5.90    -6.48     8.76  137.7   27.9
06/22/2018 19:30:00     7.66    -9.40    12.13  140.8   28.1
06/22/2018 20:00:00     8.97    -8.63    12.45  133.9   28.1
06/22/2018 20:30:00     6.25   -13.51    14.89  155.2   28.2



       
 

Today's Temperature - Salinity Data     (Download)


   Date   |  Time  |   Temp |   Cond |Salinity| Density|SoundVel|
          |  (UTC) |   (°C) | (ms/cm)|        | kg/m^3 |  (m/s) |
==========+========+========+========+========+========+========+
06/22/2018 05:00:00    28.29     2.98    17.20     0.00     0.00
06/22/2018 05:30:00    28.21     2.91    16.77     0.00     0.00
06/22/2018 06:00:00    28.15     2.80    16.09     0.00     0.00
06/22/2018 06:30:00    28.08     2.68    15.38     0.00     0.00
06/22/2018 07:00:00    28.05     2.68    15.36     0.00     0.00
06/22/2018 07:30:00    27.99     2.67    15.35     0.00     0.00
06/22/2018 08:00:00    27.97     2.69    15.43     0.00     0.00
06/22/2018 08:30:00    27.94     2.69    15.50     0.00     0.00
06/22/2018 09:00:00    27.95     2.73    15.72     0.00     0.00
06/22/2018 09:30:00    27.91     2.73    15.76     0.00     0.00
06/22/2018 10:00:00    27.90     2.73    15.74     0.00     0.00
06/22/2018 10:30:00    27.87     2.74    15.82     0.00     0.00
06/22/2018 11:00:00    27.85     2.77    16.01     0.00     0.00
06/22/2018 11:30:00    27.83     2.79    16.13     0.00     0.00
06/22/2018 12:00:00    27.83     2.83    16.38     0.00     0.00
06/22/2018 12:30:00    27.82     2.87    16.65     0.00     0.00
06/22/2018 13:00:00    27.87     2.91    16.88     0.00     0.00
06/22/2018 13:30:00    27.91     2.95    17.15     0.00     0.00
06/22/2018 14:00:00    27.94     2.99    17.36     0.00     0.00
06/22/2018 14:30:00    27.99     3.02    17.54     0.00     0.00
06/22/2018 15:00:00    28.06     3.05    17.74     0.00     0.00
06/22/2018 15:30:00    28.14     3.07    17.83     0.00     0.00
06/22/2018 16:00:00    28.20     3.10    17.97     0.00     0.00
06/22/2018 16:30:00    28.29     3.17    18.36     0.00     0.00
06/22/2018 17:00:00    28.47     3.16    18.25     0.00     0.00
06/22/2018 17:30:00    28.43     3.15    18.22     0.00     0.00
06/22/2018 18:00:00    28.51     3.16    18.26     0.00     0.00
06/22/2018 18:30:00    28.59     3.17    18.29     0.00     0.00
06/22/2018 19:00:00    28.55     3.17    18.27     0.00     0.00
06/22/2018 19:30:00    29.00     3.18    18.21     0.00     0.00
06/22/2018 20:00:00    29.03     3.17    18.12     0.00     0.00
06/22/2018 20:30:00    29.03     3.17    18.10     0.00     0.00